Extreme weather reports worldwide

Thunderstorm

Station
 
Location
 
Name
 
Wind
Knots
Gust
Knots
Vis
SM
Temp/Dew
C
Baro
inHg
METAR
 
NDJ FTTJ N'Djamena, TD N'Djamena International Airport 21 31 1.55 23/22 29.97 FTTJ 172000Z 06021G31KT 2500 TSRA BKN026 SCT040CB 23/22 Q1015 NOSIG
AEL KAEL Albert Lea, US Albert Lea Municipal Airport 13 23 10 31/18 29.71 KAEL 172035Z AUTO 19013G23KT 10SM TS CLR 31/18 A2971 RMK AO2 LTG DSNT NE THRU S
SPG KSPG St Petersburg, US Albert Whitted Airport 13 21 10 25/23 30.01 KSPG 172040Z 22013G21KT 10SM VCTS FEW011 BKN021 OVC065 26/23 A3001 RMK AO2 PK WND 20028/1959 RAB05E33 P0003 T02560233 $
KDLL Baraboo, US Baraboo Wisconsin Dells Airport 12 17 10 29/14 29.84 KDLL 172035Z AUTO 23012G17KT 10SM VCTS CLR 30/15 A2984 RMK AO2 LTG DSNT W AND NW T02990147
SVD TVSA Kingstown, VC Argyle International Airport 4 17 3.73 25/25 29.94 TVSA 2034Z COR 01004G17KT 6000 -TSRA SCT010CB BKN012 25/25 Q1014 TEMPO SHRA

Station
 
Location
 
Name
 
Wind
Knots
Gust
Knots
Vis
SM
Temp/Dew
C
Baro
inHg
METAR
 
AUM KAUM Austin, US Austin Municipal Airport 10 15 10 34/17 29.77 KAUM 172035Z AUTO 23010G15KT 10SM TS SCT095 34/17 A2977 RMK AO2 LTG DSNT ALQDS
LOO DAUL Laghouat, DZ Laghouat Airport 14 2.49 25/12 30.06 DAUL 172000Z 32014KT 4000 TS DRSA FEW033CB SCT033 25/12 Q1018
MCW KMCW Mason City, US Mason City Municipal Airport 13 4 26/20 29.79 KMCW 172036Z AUTO 33013KT 4SM +TSRA FEW065 BKN100 BKN120 26/21 A2979 RMK AO2 PK WND 30041/2020 WSHFT 2011 LTG DSNT ALQDS RAB19 TSB04E30B32 P0012 T02610206
EBH DAOY El Bayadh, DZ El Bayadh Airport 12 3.11 27/3 30.03 DAOY 172000Z 19012KT 5000 TS FEW026CB SCT030 27/03 Q1017
VOK KVOK Camp Douglas, US Volk Field 11 6 30/19 29.81 KVOK 172017Z 19011KT 6SM -TSRA BKN100CB 30/19 A2981 RMK OCNL LTGICCCCG TS 3NE MOV E
RDZ LFCR Rodez/Marcillac, FR Rodez-Marcillac Airport 10 2.49 15/14 29.91 LFCR 172030Z AUTO 09010KT 030V120 4000 TSRA BR FEW007/// SCT029/// BKN043/// ///CB 15/14 Q1013 BECMG 9999 NSW BKN016
LSE KLSE La Crosse, US La Crosse Municipal Airport 10 10 31/17 29.78 KLSE 172020Z 14010KT 10SM VCTS SCT120 31/17 A2978 RMK AO2 LTG DSNT NE AND E TSE14 T03110172
KBEA Beeville, US Beeville Municipal Airport 9 10 34/25 29.93 KBEA 172035Z AUTO 07009KT 10SM VCTS SCT050 SCT060 SCT100 35/26 A2993 RMK AO2 LTG DSNT SE AND S T03460256
AUR LFLW Aurillac, FR Aurillac Airport 9 6.21 15/14 29.94 LFLW 172030Z AUTO 07009KT 9999 -RA VCTS FEW044/// SCT056/// BKN082/// ///CB 15/14 Q1014
PHC DNPO Port Harcourt, NG Port Harcourt International Airport 8 4.35 25/24 29.94 DNPO 172000Z 04008KT 7000 TS BKN007 FEW018CB 25/24 Q1014 NOSIG
COO DBBB Cotonou, BJ Cadjehoun Airport 8 6.21 29/25 29.91 DBBB 172000Z 22008KT 9999 TS SCT012 FEW022CB 29/25 Q1013 NOSIG
KRGK Red Wing, US Red Wing Regional Airport 7 10 32/20 29.74 KRGK 172035Z AUTO 33007KT 10SM VCTS CLR 32/20 A2974 RMK AO2 LTG DSNT SE
XPL MHSC Comayagua, HN Coronel Enrique Soto Cano Air Base 7 6.21 29/22 29.90 MHSC 172037Z 17007KT 9999 VCTS BKN075 BKN150 29/22 A2990 RMK AO2A WND DATA ESTMD SLP080 $
BWN WBSB Bandar Seri Begawan, BN Brunei International Airport 7 1.86 25/25 29.88 WBSB 172030Z 34007KT 3000 TSRA FEW003 SCT012 FEW015CB BKN140 25/25 Q1012 NOSIG
KBCK Black River Falls, US Black River Falls Area Airport 6 10 31/16 29.77 KBCK 172035Z AUTO 20006KT 10SM TS SCT100 31/17 A2977 RMK AO2 LTG DSNT SE THRU W T03110165
TEA MHTE Tela, HN Tela Airport 6 6.21 32/29 29.76 MHTE 172000Z 06006KT 9999 TS BKN030TCU SCT032CB BKN080 32/29 Q1008
SAL MSLP San Salvador (San Luis Talpa), SV Monseñor Óscar Arnulfo Romero International Airport 5 6.21 31/25 29.79 MSLP 172050Z 15005KT 090V210 9999 8000NE -TSRA SCT023 FEW033CB SCT067 31/25 Q1009 A2979 TEMPO 8000 TSRA
GVA LSGG Geneva, CH Geneva Cointrin International Airport 5 3.11 20/20 30.00 LSGG 172050Z 34005KT 250V060 5000 +TSRA FEW020 BKN040CB 20/20 Q1016 BECMG NSW
KONA Winona, US Winona Municipal-Max Conrad Field 5 10 28/22 29.75 KONA 172035Z AUTO 13005KT 10SM TS SCT047 SCT060 SCT065 28/22 A2975 RMK AO2 LTG DSNT E SW AND W
PDV LBPD Plovdiv, BG Plovdiv International Airport 5 3.73 17/16 30.12 LBPD 172030Z AUTO 24005KT 200V280 6000 +TSRA BKN053 17/16 Q1020
NSI FKYS Yaoundé, CM Yaoundé Nsimalen International Airport 4 6.21 22/21 30.12 FKYS 172000Z 30004KT 9999 TS FEW006 FEW016CB 22/21 Q1020 BECMG NSW
LSGC La Chaux-de-Fonds, CH Les Eplatures Airport 4 6.21 21/13 30.09 LSGC 172050Z AUTO 27004KT 180V330 9999 TS SCT///CB 21/13 Q1019
MNCH Chinandega, NI Chinandega Airport 4 3.73 31/25 29.82 MNCH 172000Z 36004KT 6000 -TS FEW024CB SCT025TCU 31/25 Q1010 CBRA N/NE/NW TCU/W RERA
SLM LESA Salamanca, ES Salamanca Airport 4 6.21 15/13 29.88 LESA 172030Z 10004KT 9999 VCTS FEW030CB SCT040 15/13 Q1012
LBPG Graf Ignatievo, BG Graf Ignatievo Air Base 4 4.97 17/16 30.12 LBPG 172000Z 15004KT 8000 TS SCT040CB OVC060 17/16 Q1020 RESHRA
DNK UKDD Dnipropetrovsk, UA Dnipropetrovsk International Airport 4 3.11 18/17 29.97 UKDD 172030Z 06002MPS 030V120 5000 -TSRA BKN006 BKN018CB 18/17 Q1015 R08/090070 TEMPO VRB09G14MPS 1100 SHRA BKN015CB
OWA KOWA Owatonna, US Owatonna Degner Regional Airport 3 10 32/19 29.73 KOWA 172033Z AUTO 28003KT 10SM VCTS SCT110 32/19 A2973 RMK AO2 LTG DSNT E THRU SW
DLA FKKD Douala, CM Douala International Airport 2 6.21 25/24 29.94 FKKD 172000Z VRB02KT 9999 TS SCT016 FEW020CB 25/24 Q1014 NOSIG
GJL DAAV Jijel, DZ Jijel Ferhat Abbas Airport 2 6.21 24/16 29.97 DAAV 172017Z 18002KT 9999 TS FEW020 FEW030CB SCT040 BKN200 24/16 Q1015
CMY KCMY Sparta, US Sparta Fort Mc Coy Airport 0 1.75 24/19 29.81 KCMY 172035Z AUTO 00000KT 1 3/4SM +TSRA 25/20 A2981 RMK AO2 LTG DSNT ALQS P0001 T02460197
OZH UKDE Zaporizhia, UA Zaporizhzhia International Airport 0 3.11 19/17 29.94 UKDE 172000Z 00000MPS 5000 -TSRA BKN012 BKN023CB 19/17 Q1014 R02/190060 TEMPO 2100 -TSRA BKN006 BKN015CB
K7BM 0 10 24/-5 30.49 K7BM 172035Z AUTO 00000KT 10SM TS BKN110 24/M05 A3049 RMK AO2 LTG DSNT NE THRU SW
BOD LFBD Bordeaux/Mérignac, FR Bordeaux-Mérignac Airport 0 6.21 19/18 29.79 LFBD 172030Z AUTO 00000KT 9999 TSRA BKN008/// BKN019/// BKN070/// ///CB 19/18 Q1009 TEMPO VRB15G25KT 4000 SHRA BKN010 BKN050TCU
HUG MGHT Huehuetenango, GT Huehuetenango Airport 0 6.21 22/17 MGHT 172000Z 00000KT 9999 TS SCT024 SCT028CB SCT200 22/17 CB/TS/PCPN SE/S/SSW CB N/NW
JBQ MDJB La Isabela, DO La Isabela International Airport 0 4.35 30/26 29.97 MDJB 172000Z 00000KT 7000 TSVCSH FEW016CB SCT018 30/26 Q1015 CB/NE/E/NW
KDYT Duluth, US Sky Harbor Airport 0 10 27/8 29.75 KDYT 172035Z AUTO 00000KT 10SM TS CLR 27/08 A2975 RMK AO2 LTG DSNT SE
LBU WBKL Labuan, MY Labuan Airport 0 5.59 24/23 29.85 WBKL 172000Z 00000KT 9000 -TSRA FEW008 FEW016CB SCT030 24/23 Q1011